createdAt,value
2023-01-06T00:00:36.411Z,0.00
2023-01-06T00:01:36.363Z,0.00
2023-01-06T00:02:36.356Z,0.00
2023-01-06T00:03:36.307Z,0.00
2023-01-06T00:04:36.352Z,0.00
2023-01-06T00:05:36.305Z,0.00
2023-01-06T00:06:36.276Z,0.00
2023-01-06T00:07:36.257Z,0.00
2023-01-06T00:08:36.360Z,0.00
2023-01-06T00:09:36.253Z,0.00
2023-01-06T00:10:36.221Z,0.00
2023-01-06T00:11:36.221Z,0.00
2023-01-06T00:12:36.217Z,0.00
2023-01-06T00:13:36.211Z,0.00
2023-01-06T00:14:36.244Z,0.00
2023-01-06T00:15:36.216Z,0.00
2023-01-06T00:16:36.144Z,0.00
2023-01-06T00:17:36.138Z,0.00
2023-01-06T00:18:36.151Z,0.00
2023-01-06T00:19:36.129Z,0.00
2023-01-06T00:20:36.111Z,0.00
2023-01-06T00:21:36.125Z,0.00
2023-01-06T00:22:36.079Z,0.00
2023-01-06T00:23:36.082Z,0.00
2023-01-06T00:24:36.199Z,0.00
2023-01-06T00:25:36.064Z,0.00
2023-01-06T00:26:36.059Z,0.00
2023-01-06T00:27:36.064Z,0.00
2023-01-06T00:28:36.013Z,0.00
2023-01-06T00:29:36.002Z,0.00
2023-01-06T00:30:35.994Z,0.00
2023-01-06T00:31:36.008Z,0.00
2023-01-06T00:32:35.992Z,0.00
2023-01-06T00:33:35.998Z,0.00
2023-01-06T00:34:35.944Z,0.00
2023-01-06T00:35:35.942Z,0.00
2023-01-06T00:36:35.949Z,0.00
2023-01-06T00:37:35.930Z,0.00
2023-01-06T00:38:35.934Z,0.00
2023-01-06T00:39:35.887Z,0.00
2023-01-06T00:40:36.019Z,0.00
2023-01-06T00:41:35.875Z,0.00
2023-01-06T00:42:35.860Z,0.00
2023-01-06T00:43:35.866Z,0.00
2023-01-06T00:44:35.874Z,0.00
2023-01-06T00:45:35.829Z,0.00
2023-01-06T00:46:35.922Z,0.00
2023-01-06T00:47:35.836Z,0.00
2023-01-06T00:48:35.800Z,0.00
2023-01-06T00:49:35.797Z,0.00
2023-01-06T00:50:35.828Z,0.00
2023-01-06T00:51:35.767Z,0.00
2023-01-06T00:52:35.747Z,0.00
2023-01-06T00:53:35.757Z,0.00
2023-01-06T00:54:35.729Z,0.00
2023-01-06T00:55:35.762Z,0.00
2023-01-06T00:56:35.865Z,0.00
2023-01-06T00:57:35.710Z,0.00
2023-01-06T00:58:35.688Z,0.00
2023-01-06T00:59:35.688Z,0.00
2023-01-06T01:00:35.677Z,0.00
2023-01-06T01:01:35.812Z,0.00
2023-01-06T01:02:35.803Z,0.00
2023-01-06T01:03:35.639Z,0.00
2023-01-06T01:04:35.627Z,0.00
2023-01-06T01:05:35.600Z,0.00
2023-01-06T01:06:35.621Z,0.00
2023-01-06T01:07:35.632Z,0.00
2023-01-06T01:08:36.450Z,0.00
2023-01-06T01:09:35.584Z,0.00
2023-01-06T01:10:35.593Z,0.00
2023-01-06T01:11:35.605Z,0.00
2023-01-06T01:12:35.683Z,0.00
2023-01-06T01:13:35.550Z,0.00
2023-01-06T01:14:35.519Z,0.00
2023-01-06T01:15:35.600Z,0.00
2023-01-06T01:16:35.553Z,0.00
2023-01-06T01:17:35.487Z,0.00
2023-01-06T01:18:35.496Z,0.00
2023-01-06T01:19:35.462Z,0.00
2023-01-06T01:20:35.447Z,0.00
2023-01-06T01:21:35.485Z,0.00
2023-01-06T01:22:35.467Z,0.00
2023-01-06T01:23:35.427Z,0.00
2023-01-06T01:24:35.391Z,0.00
2023-01-06T01:25:35.440Z,0.00
2023-01-06T01:26:35.402Z,0.00
2023-01-06T01:27:35.389Z,0.00
2023-01-06T01:28:35.481Z,0.00
2023-01-06T01:29:35.366Z,0.00
2023-01-06T01:30:35.366Z,0.00
2023-01-06T01:31:35.316Z,0.00
2023-01-06T01:32:35.307Z,0.00
2023-01-06T01:33:35.340Z,0.00
2023-01-06T01:34:35.303Z,0.00
2023-01-06T01:35:35.300Z,0.00
2023-01-06T01:36:35.266Z,0.00
2023-01-06T01:37:35.250Z,0.00
2023-01-06T01:38:35.239Z,0.00
2023-01-06T01:39:35.266Z,0.00
2023-01-06T01:40:35.238Z,0.00
2023-01-06T01:41:35.202Z,0.00
2023-01-06T01:42:35.199Z,0.00
2023-01-06T01:43:35.178Z,0.00
2023-01-06T01:44:35.295Z,0.00
2023-01-06T01:45:35.177Z,0.00
2023-01-06T01:46:35.344Z,0.00
2023-01-06T01:47:35.137Z,0.00
2023-01-06T01:48:35.124Z,0.00
2023-01-06T01:49:35.138Z,0.00
2023-01-06T01:50:35.125Z,0.00
2023-01-06T01:51:35.109Z,0.00
2023-01-06T01:52:35.111Z,0.00
2023-01-06T01:53:35.069Z,0.00
2023-01-06T01:54:35.060Z,0.00
2023-01-06T01:55:35.055Z,0.00
2023-01-06T01:56:35.044Z,0.00
2023-01-06T01:57:35.084Z,0.00
2023-01-06T01:58:35.046Z,0.00
2023-01-06T01:59:35.011Z,0.00
2023-01-06T02:00:35.104Z,0.00
2023-01-06T02:01:35.154Z,0.00
2023-01-06T02:02:35.148Z,0.00
2023-01-06T02:03:34.989Z,0.00
2023-01-06T02:04:34.987Z,0.00
2023-01-06T02:05:34.935Z,0.00
2023-01-06T02:06:34.925Z,0.00
2023-01-06T02:07:34.914Z,0.00
2023-01-06T02:08:34.951Z,0.00
2023-01-06T02:09:34.922Z,0.00
2023-01-06T02:10:34.880Z,0.00
2023-01-06T02:11:34.865Z,0.00
2023-01-06T02:12:34.855Z,0.00
2023-01-06T02:13:34.892Z,0.00
2023-01-06T02:14:34.876Z,0.00
2023-01-06T02:15:34.875Z,0.00
2023-01-06T02:16:34.925Z,0.00
2023-01-06T02:17:34.824Z,0.00
2023-01-06T02:18:34.826Z,0.00
2023-01-06T02:19:34.796Z,0.00
2023-01-06T02:20:34.799Z,0.00
2023-01-06T02:21:34.808Z,0.00
2023-01-06T02:22:34.744Z,0.00
2023-01-06T02:23:34.790Z,0.00
2023-01-06T02:24:34.741Z,0.00
2023-01-06T02:25:34.748Z,0.00
2023-01-06T02:26:34.726Z,0.00
2023-01-06T02:27:34.740Z,0.00
2023-01-06T02:28:34.685Z,0.00
2023-01-06T02:29:34.666Z,0.00
2023-01-06T02:30:34.660Z,0.00
2023-01-06T02:31:34.665Z,0.00
2023-01-06T02:32:34.750Z,0.00
2023-01-06T02:33:34.635Z,0.00
2023-01-06T02:34:34.612Z,0.00
2023-01-06T02:35:34.613Z,0.00
2023-01-06T02:36:34.604Z,0.00
2023-01-06T02:37:34.594Z,0.00
2023-01-06T02:38:34.604Z,0.00
2023-01-06T02:39:34.579Z,0.00
2023-01-06T02:40:34.563Z,0.00
2023-01-06T02:41:34.579Z,0.00
2023-01-06T02:42:34.554Z,0.00
2023-01-06T02:43:34.533Z,0.00
2023-01-06T02:44:34.511Z,0.00
2023-01-06T02:45:34.489Z,0.00
2023-01-06T02:46:35.037Z,0.00
2023-01-06T02:47:34.505Z,0.00
2023-01-06T02:48:34.596Z,0.00
2023-01-06T02:49:34.476Z,0.00
2023-01-06T02:50:34.442Z,0.00
2023-01-06T02:51:34.449Z,0.00
2023-01-06T02:52:34.418Z,0.00
2023-01-06T02:53:34.421Z,0.00
2023-01-06T02:54:34.396Z,0.00
2023-01-06T02:55:34.385Z,0.00
2023-01-06T02:56:34.375Z,0.00
2023-01-06T02:57:34.396Z,0.00
2023-01-06T02:58:34.366Z,0.00
2023-01-06T02:59:34.350Z,0.00
2023-01-06T03:00:34.398Z,0.00
2023-01-06T03:01:34.479Z,0.00
2023-01-06T03:02:34.313Z,0.00
2023-01-06T03:03:34.322Z,0.00
2023-01-06T03:04:34.496Z,0.00
2023-01-06T03:05:34.285Z,0.00
2023-01-06T03:06:34.262Z,0.00
2023-01-06T03:07:34.240Z,0.00
2023-01-06T03:08:34.243Z,0.00
2023-01-06T03:09:34.261Z,0.00
2023-01-06T03:10:34.218Z,0.00
2023-01-06T03:11:34.224Z,0.00
2023-01-06T03:12:34.189Z,0.00
2023-01-06T03:13:34.178Z,0.00
2023-01-06T03:14:34.191Z,0.00
2023-01-06T03:15:34.165Z,0.00
2023-01-06T03:16:34.165Z,0.00
2023-01-06T03:17:34.164Z,0.00
2023-01-06T03:18:34.169Z,0.00
2023-01-06T03:19:34.108Z,0.00
2023-01-06T03:20:34.212Z,0.00
2023-01-06T03:21:34.092Z,0.00
2023-01-06T03:22:34.089Z,0.00
2023-01-06T03:23:34.114Z,0.00
2023-01-06T03:24:34.091Z,0.00
2023-01-06T03:25:34.041Z,0.00
2023-01-06T03:26:34.037Z,0.00
2023-01-06T03:27:34.022Z,0.00
2023-01-06T03:28:34.031Z,0.00
2023-01-06T03:29:34.030Z,0.00
2023-01-06T03:30:33.986Z,0.00
2023-01-06T03:31:34.024Z,0.00
2023-01-06T03:32:33.987Z,0.00
2023-01-06T03:33:33.985Z,0.00
2023-01-06T03:34:33.960Z,0.00
2023-01-06T03:35:33.928Z,0.00
2023-01-06T03:36:34.047Z,0.00
2023-01-06T03:37:33.907Z,0.00
2023-01-06T03:38:33.924Z,0.00
2023-01-06T03:39:33.927Z,0.00
2023-01-06T03:40:33.902Z,0.00
2023-01-06T03:41:33.877Z,0.00
2023-01-06T03:42:36.489Z,0.00
2023-01-06T03:43:33.845Z,0.00
2023-01-06T03:44:33.853Z,0.00
2023-01-06T03:45:33.833Z,0.00
2023-01-06T03:46:33.843Z,0.00
2023-01-06T03:47:33.833Z,0.00
2023-01-06T03:48:33.785Z,0.00
2023-01-06T03:49:33.803Z,0.00
2023-01-06T03:50:33.770Z,0.00
2023-01-06T03:51:33.772Z,0.00
2023-01-06T03:52:33.860Z,0.00
2023-01-06T03:53:33.728Z,0.00
2023-01-06T03:54:33.747Z,0.00
2023-01-06T03:55:33.743Z,0.00
2023-01-06T03:56:33.723Z,0.00
2023-01-06T03:57:33.711Z,0.00
2023-01-06T03:58:33.674Z,0.00
2023-01-06T03:59:33.664Z,0.00
2023-01-06T04:00:33.719Z,0.00
2023-01-06T04:01:33.730Z,0.00
2023-01-06T04:02:33.651Z,0.00
2023-01-06T04:03:33.650Z,0.00
2023-01-06T04:04:33.628Z,0.00
2023-01-06T04:05:33.617Z,0.00
2023-01-06T04:06:33.589Z,0.00
2023-01-06T04:07:33.602Z,0.00
2023-01-06T04:08:33.691Z,0.00
2023-01-06T04:09:33.724Z,0.00
2023-01-06T04:10:33.549Z,0.00
2023-01-06T04:11:33.533Z,0.00
2023-01-06T04:12:33.540Z,0.00
2023-01-06T04:13:33.530Z,0.00
2023-01-06T04:14:33.531Z,0.00
2023-01-06T04:15:33.531Z,0.00
2023-01-06T04:16:33.535Z,0.00
2023-01-06T04:17:33.468Z,0.00
2023-01-06T04:18:33.462Z,0.00
2023-01-06T04:19:33.464Z,0.00
2023-01-06T04:20:33.456Z,0.00
2023-01-06T04:21:33.420Z,0.00
2023-01-06T04:22:33.409Z,0.00
2023-01-06T04:23:33.441Z,0.00
2023-01-06T04:24:33.522Z,0.00
2023-01-06T04:25:33.399Z,0.00
2023-01-06T04:26:33.401Z,0.00
2023-01-06T04:27:33.352Z,0.00
2023-01-06T04:28:33.340Z,0.00
2023-01-06T04:29:33.369Z,0.00
2023-01-06T04:30:33.340Z,0.00
2023-01-06T04:31:35.426Z,0.00
2023-01-06T04:32:33.297Z,0.00
2023-01-06T04:33:33.290Z,0.00
2023-01-06T04:34:33.278Z,0.00
2023-01-06T04:35:33.322Z,0.00
2023-01-06T04:36:33.285Z,0.00
2023-01-06T04:37:33.285Z,0.00
2023-01-06T04:38:33.249Z,0.00
2023-01-06T04:39:33.233Z,0.00
2023-01-06T04:40:33.343Z,0.00
2023-01-06T04:41:33.205Z,0.00
2023-01-06T04:42:33.208Z,0.00
2023-01-06T04:43:33.187Z,0.00
2023-01-06T04:44:33.167Z,0.00
2023-01-06T04:45:33.219Z,0.00
2023-01-06T04:46:33.163Z,0.00
2023-01-06T04:47:33.186Z,0.00
2023-01-06T04:48:33.148Z,0.00
2023-01-06T04:49:33.107Z,0.00
2023-01-06T04:50:33.094Z,0.00
2023-01-06T04:51:33.093Z,0.00
2023-01-06T04:52:33.083Z,0.00
2023-01-06T04:53:33.087Z,0.00
2023-01-06T04:54:40.924Z,0.00
2023-01-06T04:55:33.041Z,0.00
2023-01-06T04:56:33.167Z,0.00
2023-01-06T04:57:33.046Z,0.00
2023-01-06T04:58:33.008Z,0.00
2023-01-06T04:59:33.020Z,0.00
2023-01-06T05:00:33.000Z,0.00
2023-01-06T05:01:33.129Z,0.00
2023-01-06T05:02:32.970Z,0.00
2023-01-06T05:03:33.057Z,0.00
2023-01-06T05:04:43.332Z,0.00
2023-01-06T05:05:33.928Z,0.00
2023-01-06T05:06:32.918Z,0.00
2023-01-06T05:07:32.917Z,0.00
2023-01-06T05:08:32.900Z,0.00
2023-01-06T05:09:32.925Z,0.00
2023-01-06T05:10:32.897Z,0.00
2023-01-06T05:11:32.897Z,0.00
2023-01-06T05:12:32.959Z,0.00
2023-01-06T05:13:32.923Z,0.00
2023-01-06T05:14:32.839Z,0.00
2023-01-06T05:15:33.048Z,0.00
2023-01-06T05:16:32.917Z,0.00
2023-01-06T05:17:32.800Z,0.00
2023-01-06T05:18:32.786Z,0.00
2023-01-06T05:19:32.798Z,0.00
2023-01-06T05:20:32.785Z,0.00
2023-01-06T05:21:33.158Z,0.00
2023-01-06T05:22:32.777Z,0.00
2023-01-06T05:23:32.728Z,0.00
2023-01-06T05:24:32.718Z,0.00
2023-01-06T05:25:32.714Z,0.00
2023-01-06T05:26:32.718Z,0.00
2023-01-06T05:27:32.719Z,0.00
2023-01-06T05:28:32.844Z,0.00
2023-01-06T05:29:32.662Z,0.00
2023-01-06T05:30:32.661Z,0.00
2023-01-06T05:31:32.759Z,0.00
2023-01-06T05:32:32.668Z,0.00
2023-01-06T05:33:32.656Z,0.00
2023-01-06T05:34:32.606Z,0.00
2023-01-06T05:35:32.598Z,0.00
2023-01-06T05:36:32.586Z,0.00
2023-01-06T05:37:32.612Z,0.00
2023-01-06T05:38:34.235Z,0.00
2023-01-06T05:39:32.600Z,0.00
2023-01-06T05:40:32.596Z,0.00
2023-01-06T05:41:32.535Z,0.00
2023-01-06T05:42:32.520Z,0.00
2023-01-06T05:43:32.550Z,0.00
2023-01-06T05:44:32.646Z,0.00
2023-01-06T05:45:32.528Z,0.00
2023-01-06T05:46:32.533Z,0.00
2023-01-06T05:47:32.466Z,0.00
2023-01-06T05:48:32.461Z,0.00
2023-01-06T05:49:32.466Z,0.00
2023-01-06T05:50:32.467Z,0.00
2023-01-06T05:51:32.463Z,0.00
2023-01-06T05:52:32.412Z,0.00
2023-01-06T05:53:32.418Z,0.00
2023-01-06T05:54:32.400Z,0.00
2023-01-06T05:55:32.418Z,0.00
2023-01-06T05:56:32.384Z,0.00
2023-01-06T05:57:32.354Z,0.00
2023-01-06T05:58:32.341Z,0.00
2023-01-06T05:59:32.556Z,0.00
2023-01-06T06:00:32.488Z,0.00
2023-01-06T06:01:32.413Z,0.00
2023-01-06T06:02:32.431Z,0.00
2023-01-06T06:03:32.334Z,0.00
2023-01-06T06:04:32.275Z,0.00
2023-01-06T06:05:32.271Z,0.00
2023-01-06T06:06:32.280Z,0.00
2023-01-06T06:07:32.282Z,0.00
2023-01-06T06:08:32.237Z,0.00
2023-01-06T06:09:32.271Z,0.00
2023-01-06T06:10:32.210Z,0.00
2023-01-06T06:11:32.234Z,0.00
2023-01-06T06:12:32.204Z,0.00
2023-01-06T06:13:32.209Z,0.00
2023-01-06T06:14:32.171Z,0.00
2023-01-06T06:15:32.166Z,0.00
2023-01-06T06:16:32.340Z,0.00
2023-01-06T06:17:32.145Z,0.00
2023-01-06T06:18:32.182Z,0.00
2023-01-06T06:19:32.184Z,0.00
2023-01-06T06:20:32.107Z,0.00
2023-01-06T06:21:32.097Z,0.00
2023-01-06T06:22:32.079Z,0.00
2023-01-06T06:23:32.094Z,0.00
2023-01-06T06:24:32.074Z,0.00
2023-01-06T06:25:32.077Z,0.00
2023-01-06T06:26:32.031Z,0.00
2023-01-06T06:27:32.027Z,0.00
2023-01-06T06:28:32.012Z,0.00
2023-01-06T06:29:32.002Z,0.00
2023-01-06T06:30:32.031Z,0.00
2023-01-06T06:31:32.114Z,0.00
2023-01-06T06:32:32.086Z,0.00
2023-01-06T06:33:31.959Z,0.00
2023-01-06T06:34:31.957Z,0.00
2023-01-06T06:35:31.953Z,0.00
2023-01-06T06:36:31.952Z,0.00
2023-01-06T06:37:31.911Z,0.00
2023-01-06T06:38:31.899Z,0.00
2023-01-06T06:39:31.891Z,0.00
2023-01-06T06:40:31.908Z,0.00
2023-01-06T06:41:31.911Z,0.00
2023-01-06T06:42:31.891Z,0.00
2023-01-06T06:43:31.845Z,0.00
2023-01-06T06:44:31.835Z,4.00
2023-01-06T06:45:31.855Z,0.00
2023-01-06T06:46:31.867Z,0.00
2023-01-06T06:47:31.846Z,4.00
2023-01-06T06:48:31.914Z,4.00
2023-01-06T06:49:31.779Z,4.00
2023-01-06T06:50:31.765Z,4.00
2023-01-06T06:51:31.916Z,8.00
2023-01-06T06:52:31.795Z,8.00
2023-01-06T06:53:31.762Z,4.00
2023-01-06T06:54:31.774Z,8.00
2023-01-06T06:55:31.710Z,8.00
2023-01-06T06:56:31.703Z,8.00
2023-01-06T06:57:31.709Z,8.00
2023-01-06T06:58:31.711Z,8.00
2023-01-06T06:59:31.701Z,12.00
2023-01-06T07:00:31.656Z,12.00
2023-01-06T07:01:31.845Z,12.00
2023-01-06T07:02:31.631Z,16.00
2023-01-06T07:03:31.665Z,12.00
2023-01-06T07:04:31.847Z,16.00
2023-01-06T07:05:31.636Z,20.00
2023-01-06T07:06:31.591Z,16.00
2023-01-06T07:07:31.689Z,20.00
2023-01-06T07:08:31.594Z,24.00
2023-01-06T07:09:31.600Z,20.00
2023-01-06T07:10:31.558Z,24.00
2023-01-06T07:11:31.536Z,28.00
2023-01-06T07:12:31.522Z,28.00
2023-01-06T07:13:31.556Z,28.00
2023-01-06T07:14:31.519Z,32.00
2023-01-06T07:15:31.544Z,32.00
2023-01-06T07:16:31.506Z,36.00
2023-01-06T07:17:31.523Z,40.00
2023-01-06T07:18:31.464Z,44.00
2023-01-06T07:19:31.449Z,44.00
2023-01-06T07:20:31.569Z,52.00
2023-01-06T07:21:31.440Z,52.00
2023-01-06T07:22:31.470Z,56.00
2023-01-06T07:23:31.401Z,60.00
2023-01-06T07:24:31.389Z,64.00
2023-01-06T07:25:31.385Z,72.00
2023-01-06T07:26:31.401Z,76.00
2023-01-06T07:27:31.381Z,76.00
2023-01-06T07:28:31.375Z,80.00
2023-01-06T07:29:31.386Z,84.00
2023-01-06T07:30:31.336Z,88.00
2023-01-06T07:31:31.423Z,88.00
2023-01-06T07:32:31.308Z,92.00
2023-01-06T07:33:31.326Z,92.00
2023-01-06T07:34:31.280Z,96.00
2023-01-06T07:35:31.275Z,100.00
2023-01-06T07:36:31.400Z,100.00
2023-01-06T07:37:31.262Z,104.00
2023-01-06T07:38:31.269Z,108.00
2023-01-06T07:39:31.263Z,108.00
2023-01-06T07:40:31.267Z,112.00
2023-01-06T07:41:31.597Z,112.00
2023-01-06T07:42:31.227Z,116.00
2023-01-06T07:43:31.203Z,116.00
2023-01-06T07:44:31.193Z,120.00
2023-01-06T07:45:31.198Z,120.00
2023-01-06T07:46:31.187Z,120.00
2023-01-06T07:47:31.161Z,120.00
2023-01-06T07:48:31.222Z,124.00
2023-01-06T07:49:31.137Z,120.00
2023-01-06T07:50:31.136Z,124.00
2023-01-06T07:51:31.099Z,120.00
2023-01-06T07:52:31.190Z,120.00
2023-01-06T07:53:31.104Z,124.00
2023-01-06T07:54:31.097Z,124.00
2023-01-06T07:55:31.061Z,124.00
2023-01-06T07:56:31.062Z,124.00
2023-01-06T07:57:31.032Z,128.00
2023-01-06T07:58:31.063Z,128.00
2023-01-06T07:59:31.034Z,128.00
2023-01-06T08:00:30.990Z,132.00
2023-01-06T08:01:31.160Z,128.00
2023-01-06T08:02:31.135Z,132.00
2023-01-06T08:03:30.967Z,128.00
2023-01-06T08:04:30.951Z,128.00
2023-01-06T08:05:30.942Z,128.00
2023-01-06T08:06:30.981Z,132.00
2023-01-06T08:07:30.947Z,132.00
2023-01-06T08:08:31.011Z,136.00
2023-01-06T08:09:30.891Z,136.00
2023-01-06T08:10:30.924Z,136.00
2023-01-06T08:11:30.893Z,136.00
2023-01-06T08:12:30.866Z,140.00
2023-01-06T08:13:30.884Z,140.00
2023-01-06T08:14:30.888Z,144.00
2023-01-06T08:15:30.825Z,140.00
2023-01-06T08:16:30.812Z,144.00
2023-01-06T08:17:30.824Z,144.00
2023-01-06T08:18:30.811Z,148.00
2023-01-06T08:19:30.855Z,152.00
2023-01-06T08:20:30.788Z,156.00
2023-01-06T08:21:30.761Z,160.00
2023-01-06T08:22:30.751Z,164.00
2023-01-06T08:23:30.745Z,172.00
2023-01-06T08:24:31.991Z,172.00
2023-01-06T08:25:30.762Z,172.00
2023-01-06T08:26:30.702Z,176.00
2023-01-06T08:27:30.701Z,176.00
2023-01-06T08:28:30.707Z,180.00
2023-01-06T08:29:30.693Z,184.00
2023-01-06T08:30:30.689Z,184.00
2023-01-06T08:31:30.687Z,184.00
2023-01-06T08:32:30.652Z,184.00
2023-01-06T08:33:30.653Z,188.00
2023-01-06T08:34:30.635Z,184.00
2023-01-06T08:35:30.622Z,188.00
2023-01-06T08:36:30.645Z,192.00
2023-01-06T08:37:30.579Z,188.00
2023-01-06T08:38:30.599Z,188.00
2023-01-06T08:39:30.578Z,188.00
2023-01-06T08:40:30.675Z,192.00
2023-01-06T08:41:30.586Z,192.00
2023-01-06T08:42:30.578Z,192.00
2023-01-06T08:43:30.513Z,192.00
2023-01-06T08:44:30.508Z,192.00
2023-01-06T08:45:30.495Z,192.00
2023-01-06T08:46:30.573Z,192.00
2023-01-06T08:47:30.506Z,196.00
2023-01-06T08:48:30.458Z,192.00
2023-01-06T08:49:30.447Z,196.00
2023-01-06T08:50:30.453Z,192.00
2023-01-06T08:51:30.440Z,192.00
2023-01-06T08:52:30.449Z,192.00
2023-01-06T08:53:30.434Z,192.00
2023-01-06T08:54:30.397Z,196.00
2023-01-06T08:55:30.392Z,192.00
2023-01-06T08:56:30.520Z,192.00
2023-01-06T08:57:30.402Z,196.00
2023-01-06T08:58:30.378Z,196.00
2023-01-06T08:59:30.360Z,196.00
2023-01-06T09:00:30.339Z,204.00
2023-01-06T09:01:30.530Z,200.00
2023-01-06T09:02:30.431Z,204.00
2023-01-06T09:03:30.301Z,208.00
2023-01-06T09:04:30.313Z,208.00
2023-01-06T09:05:30.266Z,208.00
2023-01-06T09:06:30.269Z,208.00
2023-01-06T09:07:30.246Z,208.00
2023-01-06T09:08:30.289Z,208.00
2023-01-06T09:09:30.267Z,208.00
2023-01-06T09:10:30.231Z,212.00
2023-01-06T09:11:30.234Z,212.00
2023-01-06T09:12:30.314Z,208.00
2023-01-06T09:13:30.181Z,212.00
2023-01-06T09:14:30.217Z,216.00
2023-01-06T09:15:30.173Z,220.00
2023-01-06T09:16:30.169Z,216.00
2023-01-06T09:17:30.201Z,216.00
2023-01-06T09:18:30.125Z,220.00
2023-01-06T09:19:30.150Z,220.00
2023-01-06T09:20:30.139Z,216.00
2023-01-06T09:21:30.123Z,212.00
2023-01-06T09:22:30.580Z,208.00
2023-01-06T09:23:30.092Z,212.00
2023-01-06T09:24:30.095Z,212.00
2023-01-06T09:25:30.060Z,216.00
2023-01-06T09:26:30.093Z,212.00
2023-01-06T09:27:30.053Z,216.00
2023-01-06T09:28:30.124Z,220.00
2023-01-06T09:29:30.015Z,224.00
2023-01-06T09:30:29.999Z,224.00
2023-01-06T09:31:30.101Z,220.00
2023-01-06T09:32:30.004Z,224.00
2023-01-06T09:33:30.001Z,224.00
2023-01-06T09:34:29.945Z,224.00
2023-01-06T09:35:29.942Z,228.00
2023-01-06T09:36:29.931Z,236.00
2023-01-06T09:37:29.929Z,240.00
2023-01-06T09:38:29.945Z,244.00
2023-01-06T09:39:29.951Z,248.00
2023-01-06T09:40:29.882Z,248.00
2023-01-06T09:41:29.868Z,252.00
2023-01-06T09:42:29.869Z,256.00
2023-01-06T09:43:29.860Z,256.00
2023-01-06T09:44:30.024Z,252.00
2023-01-06T09:45:29.821Z,248.00
2023-01-06T09:46:29.860Z,252.00
2023-01-06T09:47:29.801Z,244.00
2023-01-06T09:48:29.819Z,244.00
2023-01-06T09:49:29.814Z,244.00
2023-01-06T09:50:29.783Z,244.00
2023-01-06T09:51:29.763Z,240.00
2023-01-06T09:52:29.754Z,240.00
2023-01-06T09:53:29.743Z,236.00
2023-01-06T09:54:29.761Z,232.00
2023-01-06T09:55:29.743Z,228.00
2023-01-06T09:56:29.768Z,220.00
2023-01-06T09:57:29.695Z,224.00
2023-01-06T09:58:29.691Z,220.00
2023-01-06T09:59:29.691Z,220.00
2023-01-06T10:00:29.687Z,220.00
2023-01-06T10:01:29.805Z,216.00
2023-01-06T10:02:29.789Z,216.00
2023-01-06T10:03:29.631Z,212.00
2023-01-06T10:04:29.632Z,208.00
2023-01-06T10:05:29.632Z,208.00
2023-01-06T10:06:29.685Z,204.00
2023-01-06T10:07:29.623Z,204.00
2023-01-06T10:08:29.584Z,200.00
2023-01-06T10:09:29.584Z,196.00
2023-01-06T10:10:29.554Z,200.00
2023-01-06T10:11:29.546Z,200.00
2023-01-06T10:12:29.551Z,196.00
2023-01-06T10:13:29.547Z,200.00
2023-01-06T10:14:29.498Z,204.00
2023-01-06T10:15:29.492Z,200.00
2023-01-06T10:16:29.801Z,200.00
2023-01-06T10:17:29.505Z,200.00
2023-01-06T10:18:29.492Z,200.00
2023-01-06T10:19:29.441Z,200.00
2023-01-06T10:20:29.435Z,196.00
2023-01-06T10:21:29.604Z,204.00
2023-01-06T10:22:29.438Z,204.00
2023-01-06T10:23:29.440Z,204.00
2023-01-06T10:24:29.420Z,204.00
2023-01-06T10:25:29.420Z,204.00
2023-01-06T10:26:29.370Z,204.00
2023-01-06T10:27:29.364Z,204.00
2023-01-06T10:28:29.381Z,204.00
2023-01-06T10:29:29.384Z,208.00
2023-01-06T10:30:30.802Z,212.00
2023-01-06T10:31:29.466Z,212.00
2023-01-06T10:32:29.427Z,212.00
2023-01-06T10:33:29.340Z,208.00
2023-01-06T10:34:29.332Z,208.00
2023-01-06T10:35:29.321Z,208.00
2023-01-06T10:36:29.435Z,208.00
2023-01-06T10:37:29.241Z,212.00
2023-01-06T10:38:29.235Z,212.00
2023-01-06T10:39:29.247Z,216.00
2023-01-06T10:40:29.235Z,212.00
2023-01-06T10:41:29.240Z,216.00
2023-01-06T10:42:29.197Z,216.00
2023-01-06T10:43:29.177Z,212.00
2023-01-06T10:44:29.170Z,216.00
2023-01-06T10:45:29.195Z,212.00
2023-01-06T10:46:29.258Z,216.00
2023-01-06T10:47:29.179Z,212.00
2023-01-06T10:48:29.236Z,212.00
2023-01-06T10:49:29.116Z,208.00
2023-01-06T10:50:29.121Z,212.00
2023-01-06T10:51:29.102Z,216.00
2023-01-06T10:52:29.120Z,216.00
2023-01-06T10:53:29.098Z,212.00
2023-01-06T10:54:29.097Z,216.00
2023-01-06T10:55:29.080Z,216.00
2023-01-06T10:56:29.069Z,216.00
2023-01-06T10:57:29.043Z,216.00
2023-01-06T10:58:29.583Z,220.00
2023-01-06T10:59:28.995Z,216.00
2023-01-06T11:00:29.088Z,216.00
2023-01-06T11:01:29.206Z,216.00
2023-01-06T11:02:29.130Z,216.00
2023-01-06T11:03:33.735Z,216.00
2023-01-06T11:04:30.074Z,216.00
2023-01-06T11:05:28.928Z,220.00
2023-01-06T11:06:28.964Z,216.00
2023-01-06T11:07:28.952Z,216.00
2023-01-06T11:08:28.941Z,216.00
2023-01-06T11:09:28.925Z,216.00
2023-01-06T11:10:28.882Z,220.00
2023-01-06T11:11:29.497Z,220.00
2023-01-06T11:12:29.162Z,220.00
2023-01-06T11:13:28.875Z,220.00
2023-01-06T11:14:29.611Z,220.00
2023-01-06T11:15:28.834Z,220.00
2023-01-06T11:16:28.941Z,220.00
2023-01-06T11:17:28.874Z,224.00
2023-01-06T11:18:28.898Z,220.00
2023-01-06T11:19:28.785Z,224.00
2023-01-06T11:20:28.906Z,224.00
2023-01-06T11:21:28.751Z,224.00
2023-01-06T11:23:28.764Z,224.00
2023-01-06T11:24:28.764Z,224.00
2023-01-06T11:25:28.720Z,224.00
2023-01-06T11:26:28.743Z,224.00
2023-01-06T11:27:28.747Z,224.00
2023-01-06T11:28:28.680Z,228.00
2023-01-06T11:29:28.716Z,228.00
2023-01-06T11:30:28.758Z,232.00
2023-01-06T11:31:28.757Z,232.00
2023-01-06T11:32:28.667Z,232.00
2023-01-06T11:33:28.618Z,232.00
2023-01-06T11:34:28.609Z,228.00
2023-01-06T11:35:28.607Z,232.00
2023-01-06T11:36:28.746Z,228.00
2023-01-06T11:37:28.607Z,228.00
2023-01-06T11:38:28.564Z,228.00
2023-01-06T11:39:28.556Z,228.00
2023-01-06T11:40:28.587Z,228.00
2023-01-06T11:41:28.556Z,228.00
2023-01-06T11:42:28.539Z,224.00
2023-01-06T11:43:28.554Z,228.00
2023-01-06T11:44:28.527Z,224.00
2023-01-06T11:45:28.497Z,224.00
2023-01-06T11:46:28.476Z,220.00
2023-01-06T11:47:28.481Z,220.00
2023-01-06T11:48:28.465Z,216.00
2023-01-06T11:49:28.473Z,216.00
2023-01-06T11:50:28.433Z,212.00
2023-01-06T11:51:28.511Z,220.00
2023-01-06T11:52:28.521Z,232.00
2023-01-06T11:53:28.399Z,252.00
2023-01-06T11:54:28.429Z,244.00
2023-01-06T11:55:28.376Z,252.00
2023-01-06T11:56:28.369Z,248.00
2023-01-06T11:57:28.353Z,260.00
2023-01-06T11:58:28.356Z,444.00
2023-01-06T11:59:28.402Z,320.00
2023-01-06T12:00:28.353Z,356.00
2023-01-06T12:01:28.387Z,284.00
2023-01-06T12:02:28.341Z,288.00
2023-01-06T12:03:28.306Z,308.00
2023-01-06T12:04:28.318Z,344.00
2023-01-06T12:05:28.277Z,380.00
2023-01-06T12:06:28.273Z,448.00
2023-01-06T12:07:28.239Z,496.00
2023-01-06T12:08:28.354Z,532.00
2023-01-06T12:09:28.259Z,532.00
2023-01-06T12:10:28.234Z,544.00
2023-01-06T12:11:28.220Z,544.00
2023-01-06T12:12:28.218Z,556.00
2023-01-06T12:13:28.172Z,580.00
2023-01-06T12:14:29.732Z,620.00
2023-01-06T12:15:28.166Z,684.00
2023-01-06T12:16:28.320Z,748.00
2023-01-06T12:17:28.305Z,800.00
2023-01-06T12:18:28.118Z,832.00
2023-01-06T12:19:28.161Z,852.00
2023-01-06T12:20:28.097Z,844.00
2023-01-06T12:21:28.123Z,836.00
2023-01-06T12:22:28.114Z,804.00
2023-01-06T12:23:28.121Z,764.00
2023-01-06T12:24:28.164Z,740.00
2023-01-06T12:25:28.039Z,672.00
2023-01-06T12:26:28.049Z,640.00
2023-01-06T12:27:28.040Z,552.00
2023-01-06T12:28:28.075Z,440.00
2023-01-06T12:29:28.048Z,388.00
2023-01-06T12:30:28.052Z,324.00
2023-01-06T12:31:28.069Z,284.00
2023-01-06T12:32:27.978Z,260.00
2023-01-06T12:33:27.993Z,256.00
2023-01-06T12:34:27.982Z,276.00
2023-01-06T12:35:27.928Z,296.00
2023-01-06T12:36:27.921Z,312.00
2023-01-06T12:37:27.916Z,324.00
2023-01-06T12:38:27.926Z,380.00
2023-01-06T12:39:27.931Z,352.00
2023-01-06T12:40:28.008Z,408.00
2023-01-06T12:41:27.863Z,444.00
2023-01-06T12:42:28.223Z,492.00
2023-01-06T12:43:27.848Z,488.00
2023-01-06T12:44:27.844Z,468.00
2023-01-06T12:45:27.856Z,476.00
2023-01-06T12:46:27.971Z,492.00
2023-01-06T12:47:27.798Z,532.00
2023-01-06T12:48:27.819Z,596.00
2023-01-06T12:49:27.791Z,732.00
2023-01-06T12:50:27.799Z,748.00
2023-01-06T12:51:27.774Z,676.00
2023-01-06T12:52:27.765Z,608.00
2023-01-06T12:53:27.799Z,620.00
2023-01-06T12:54:27.726Z,656.00
2023-01-06T12:55:27.753Z,732.00
2023-01-06T12:56:27.731Z,836.00